QFA141 NZAA-YSSY
Flight info
| Callsign | QFA141 |
|---|---|
| Flight time | 2h 58m |
| Altitude | 36000 |
| Route | OSRAP2P VELMO DCT 38S163E DCT PLUGA DCT RIKNI N774 MARLN MARLN5 |
| Aircraft | B738/M-SDE2E3FGHIRWXY/LB1 |
Departure
| Time | 2026-04-20 03:24 |
|---|---|
| Airport | Auckland International Airport (NZAA) |
Arrival
| Time | 2026-04-20 06:22 |
|---|---|
| Airport | Sydney Kingsford Smith International Airport (YSSY) |
| Time | Latitude | Longitude | Altitude | Speed | Heading |
|---|---|---|---|---|---|
| 2026-04-20 02:54 | -37.00852 | 174.78224 | 25 ft | 0 kts | 17° |
| 2026-04-20 03:10 | -37.00866 | 174.78218 | 30 ft | 3 kts | 21° |
| 2026-04-20 03:10 | -37.00885 | 174.78208 | 29 ft | 3 kts | 27° |
| 2026-04-20 03:10 | -37.00902 | 174.78196 | 29 ft | 3 kts | 36° |
| 2026-04-20 03:11 | -37.00917 | 174.78179 | 30 ft | 3 kts | 52° |
| 2026-04-20 03:11 | -37.00927 | 174.78159 | 30 ft | 3 kts | 85° |
| 2026-04-20 03:11 | -37.00926 | 174.78143 | 28 ft | 1 kts | 119° |
| 2026-04-20 03:11 | -37.00930 | 174.78153 | 27 ft | 3 kts | 119° |
| 2026-04-20 03:12 | -37.00940 | 174.78175 | 28 ft | 2 kts | 120° |
| 2026-04-20 03:12 | -37.00943 | 174.78182 | 28 ft | 0 kts | 120° |
| 2026-04-20 03:16 | -37.00944 | 174.78183 | 27 ft | 1 kts | 120° |
| 2026-04-20 03:16 | -37.00956 | 174.78208 | 26 ft | 6 kts | 123° |
| 2026-04-20 03:16 | -37.00989 | 174.78258 | 27 ft | 8 kts | 124° |
| 2026-04-20 03:16 | -37.00996 | 174.78324 | 25 ft | 8 kts | 85° |
| 2026-04-20 03:17 | -37.00989 | 174.78389 | 25 ft | 7 kts | 76° |
| 2026-04-20 03:17 | -37.00973 | 174.78448 | 25 ft | 7 kts | 70° |
| 2026-04-20 03:17 | -37.00954 | 174.78513 | 24 ft | 9 kts | 70° |
| 2026-04-20 03:17 | -37.00932 | 174.78591 | 27 ft | 10 kts | 70° |
| 2026-04-20 03:18 | -37.00907 | 174.78682 | 26 ft | 12 kts | 71° |
| 2026-04-20 03:18 | -37.00879 | 174.78784 | 28 ft | 13 kts | 71° |
| 2026-04-20 03:18 | -37.00848 | 174.78895 | 28 ft | 14 kts | 71° |
| 2026-04-20 03:18 | -37.00816 | 174.79014 | 26 ft | 15 kts | 71° |
| 2026-04-20 03:19 | -37.00781 | 174.79142 | 24 ft | 16 kts | 71° |
| 2026-04-20 03:19 | -37.00744 | 174.79276 | 24 ft | 17 kts | 71° |
| 2026-04-20 03:19 | -37.00704 | 174.79417 | 26 ft | 18 kts | 71° |
| 2026-04-20 03:19 | -37.00665 | 174.79561 | 27 ft | 17 kts | 73° |
| 2026-04-20 03:20 | -37.00626 | 174.79701 | 24 ft | 16 kts | 70° |
| 2026-04-20 03:20 | -37.00590 | 174.79831 | 27 ft | 16 kts | 70° |
| 2026-04-20 03:20 | -37.00548 | 174.79951 | 24 ft | 15 kts | 63° |
| 2026-04-20 03:20 | -37.00510 | 174.80069 | 24 ft | 14 kts | 71° |
| 2026-04-20 03:21 | -37.00478 | 174.80184 | 24 ft | 14 kts | 71° |
| 2026-04-20 03:21 | -37.00449 | 174.80291 | 27 ft | 11 kts | 74° |
| 2026-04-20 03:21 | -37.00479 | 174.80365 | 24 ft | 10 kts | 156° |
| 2026-04-20 03:21 | -37.00539 | 174.80410 | 25 ft | 10 kts | 133° |
| 2026-04-20 03:22 | -37.00581 | 174.80470 | 25 ft | 7 kts | 130° |
| 2026-04-20 03:22 | -37.00586 | 174.80477 | 25 ft | 0 kts | 131° |
| 2026-04-20 03:22 | -37.00588 | 174.80480 | 25 ft | 1 kts | 131° |
| 2026-04-20 03:23 | -37.00606 | 174.80505 | 28 ft | 7 kts | 131° |
| 2026-04-20 03:23 | -37.00663 | 174.80533 | 25 ft | 11 kts | 193° |
| 2026-04-20 03:23 | -37.00701 | 174.80446 | 24 ft | 15 kts | 251° |
| 2026-04-20 03:23 | -37.00780 | 174.80154 | 28 ft | 69 kts | 251° |
| 2026-04-20 03:24 | -37.01017 | 174.79306 | 24 ft | 135 kts | 251° |
| 2026-04-20 03:24 | -37.01383 | 174.77970 | 96 ft | 182 kts | 251° |
| 2026-04-20 03:24 | -37.01803 | 174.76491 | 848 ft | 179 kts | 248° |
| 2026-04-20 03:24 | -37.02260 | 174.75060 | 1656 ft | 179 kts | 248° |
| 2026-04-20 03:25 | -37.02744 | 174.73506 | 2032 ft | 204 kts | 250° |
| 2026-04-20 03:25 | -37.03235 | 174.71741 | 2255 ft | 226 kts | 255° |
| 2026-04-20 03:25 | -37.03711 | 174.69790 | 2589 ft | 240 kts | 254° |
| 2026-04-20 03:25 | -37.04230 | 174.67778 | 3129 ft | 247 kts | 253° |
| 2026-04-20 03:26 | -37.04798 | 174.65656 | 3550 ft | 264 kts | 253° |
| 2026-04-20 03:26 | -37.05384 | 174.63490 | 4306 ft | 268 kts | 253° |
| 2026-04-20 03:26 | -37.05987 | 174.61274 | 5138 ft | 269 kts | 253° |
| 2026-04-20 03:26 | -37.06598 | 174.59041 | 5961 ft | 272 kts | 253° |
| 2026-04-20 03:27 | -37.07216 | 174.56788 | 6710 ft | 275 kts | 253° |
| 2026-04-20 03:27 | -37.07840 | 174.54509 | 7462 ft | 278 kts | 253° |
| 2026-04-20 03:27 | -37.08469 | 174.52212 | 8227 ft | 280 kts | 253° |
| 2026-04-20 03:27 | -37.09105 | 174.49885 | 8980 ft | 283 kts | 253° |
| 2026-04-20 03:28 | -37.09747 | 174.47538 | 9713 ft | 287 kts | 253° |
| 2026-04-20 03:28 | -37.10398 | 174.45153 | 10334 ft | 293 kts | 253° |
| 2026-04-20 03:28 | -37.12002 | 174.40060 | 10744 ft | 336 kts | 248° |
| 2026-04-20 03:29 | -37.12968 | 174.37357 | 11281 ft | 343 kts | 247° |
| 2026-04-20 03:29 | -37.13955 | 174.34612 | 11985 ft | 347 kts | 247° |
| 2026-04-20 03:29 | -37.14943 | 174.31855 | 12727 ft | 349 kts | 247° |
| 2026-04-20 03:29 | -37.15939 | 174.29054 | 13457 ft | 353 kts | 248° |
| 2026-04-20 03:30 | -37.16939 | 174.26222 | 14103 ft | 357 kts | 248° |
| 2026-04-20 03:30 | -37.17958 | 174.23351 | 14763 ft | 361 kts | 246° |
| 2026-04-20 03:30 | -37.18990 | 174.20467 | 15450 ft | 365 kts | 247° |
| 2026-04-20 03:30 | -37.20020 | 174.17545 | 16118 ft | 368 kts | 247° |
| 2026-04-20 03:31 | -37.21053 | 174.14588 | 16780 ft | 372 kts | 247° |
| 2026-04-20 03:31 | -37.22096 | 174.11591 | 17436 ft | 376 kts | 247° |
| 2026-04-20 03:31 | -37.23147 | 174.08564 | 18068 ft | 380 kts | 247° |
| 2026-04-20 03:31 | -37.24192 | 174.05547 | 18639 ft | 383 kts | 248° |
| 2026-04-20 03:32 | -37.25256 | 174.02471 | 19230 ft | 385 kts | 247° |
| 2026-04-20 03:32 | -37.26327 | 173.99373 | 19804 ft | 388 kts | 248° |
| 2026-04-20 03:32 | -37.27410 | 173.96243 | 20370 ft | 392 kts | 247° |
| 2026-04-20 03:32 | -37.28499 | 173.93094 | 20932 ft | 395 kts | 248° |
| 2026-04-20 03:33 | -37.29601 | 173.89906 | 21490 ft | 398 kts | 247° |
| 2026-04-20 03:33 | -37.30706 | 173.86700 | 21950 ft | 403 kts | 247° |
| 2026-04-20 03:33 | -37.31825 | 173.83449 | 22444 ft | 407 kts | 246° |
| 2026-04-20 03:33 | -37.32952 | 173.80177 | 22995 ft | 409 kts | 246° |
| 2026-04-20 03:34 | -37.34091 | 173.76875 | 23454 ft | 412 kts | 246° |
| 2026-04-20 03:34 | -37.35218 | 173.73600 | 23888 ft | 415 kts | 246° |
| 2026-04-20 03:34 | -37.36368 | 173.70266 | 24321 ft | 417 kts | 246° |
| 2026-04-20 03:34 | -37.37526 | 173.66912 | 24754 ft | 419 kts | 246° |
| 2026-04-20 03:35 | -37.38690 | 173.63537 | 25164 ft | 422 kts | 247° |
| 2026-04-20 03:35 | -37.39858 | 173.60138 | 25559 ft | 425 kts | 247° |
| 2026-04-20 03:35 | -37.40651 | 173.57826 | 25825 ft | 427 kts | 247° |
| 2026-04-20 03:35 | -37.41815 | 173.54427 | 26215 ft | 429 kts | 248° |
| 2026-04-20 03:36 | -37.43001 | 173.50958 | 26597 ft | 432 kts | 247° |
| 2026-04-20 03:36 | -37.44192 | 173.47468 | 26932 ft | 436 kts | 248° |
| 2026-04-20 03:36 | -37.45389 | 173.43953 | 27303 ft | 438 kts | 248° |
| 2026-04-20 03:36 | -37.46591 | 173.40421 | 27686 ft | 440 kts | 248° |
| 2026-04-20 03:37 | -37.47798 | 173.36871 | 28050 ft | 442 kts | 248° |
| 2026-04-20 03:37 | -37.49013 | 173.33292 | 28394 ft | 445 kts | 248° |
| 2026-04-20 03:37 | -37.50231 | 173.29701 | 28726 ft | 447 kts | 248° |
| 2026-04-20 03:37 | -37.51455 | 173.26090 | 29057 ft | 449 kts | 248° |
| 2026-04-20 03:38 | -37.52669 | 173.22500 | 29378 ft | 451 kts | 249° |
| 2026-04-20 03:38 | -37.53914 | 173.18816 | 29736 ft | 452 kts | 249° |
| 2026-04-20 03:38 | -37.55129 | 173.15217 | 30127 ft | 451 kts | 249° |
| 2026-04-20 03:38 | -37.56357 | 173.11577 | 30506 ft | 450 kts | 248° |
| 2026-04-20 03:39 | -37.57579 | 173.07950 | 30833 ft | 450 kts | 248° |
| 2026-04-20 03:39 | -37.58802 | 173.04314 | 31121 ft | 451 kts | 248° |
| 2026-04-20 03:39 | -37.60025 | 173.00675 | 31440 ft | 451 kts | 248° |
| 2026-04-20 03:39 | -37.61248 | 172.97029 | 31787 ft | 450 kts | 248° |
| 2026-04-20 03:40 | -37.62467 | 172.93393 | 32110 ft | 450 kts | 248° |
| 2026-04-20 03:40 | -37.63684 | 172.89754 | 32410 ft | 450 kts | 248° |
| 2026-04-20 03:40 | -37.64904 | 172.86106 | 32719 ft | 450 kts | 248° |
| 2026-04-20 03:40 | -37.66106 | 172.82505 | 33034 ft | 450 kts | 248° |
| 2026-04-20 03:41 | -37.67322 | 172.78856 | 33333 ft | 450 kts | 249° |
| 2026-04-20 03:41 | -37.68536 | 172.75212 | 33617 ft | 450 kts | 249° |
| 2026-04-20 03:41 | -37.69747 | 172.71568 | 33862 ft | 450 kts | 249° |
| 2026-04-20 03:41 | -37.70957 | 172.67926 | 34124 ft | 449 kts | 249° |
| 2026-04-20 03:42 | -37.72166 | 172.64282 | 34384 ft | 449 kts | 249° |
| 2026-04-20 03:42 | -37.73367 | 172.60655 | 34600 ft | 449 kts | 249° |
| 2026-04-20 03:42 | -37.74573 | 172.57009 | 34786 ft | 450 kts | 249° |
| 2026-04-20 03:42 | -37.75779 | 172.53359 | 35005 ft | 450 kts | 249° |
| 2026-04-20 03:43 | -37.76985 | 172.49702 | 35255 ft | 449 kts | 249° |
| 2026-04-20 03:43 | -37.78185 | 172.46061 | 35507 ft | 448 kts | 249° |
| 2026-04-20 03:43 | -37.79384 | 172.42419 | 35619 ft | 450 kts | 249° |
| 2026-04-20 03:43 | -37.80591 | 172.38748 | 35627 ft | 453 kts | 249° |
| 2026-04-20 03:44 | -37.82991 | 172.31432 | 35607 ft | 451 kts | 249° |
| 2026-04-20 03:44 | -37.85401 | 172.24070 | 35626 ft | 454 kts | 249° |
| 2026-04-20 03:45 | -37.87833 | 172.16613 | 35625 ft | 460 kts | 249° |
| 2026-04-20 03:45 | -37.90279 | 172.09097 | 35615 ft | 463 kts | 249° |
| 2026-04-20 03:46 | -37.92735 | 172.01534 | 35626 ft | 464 kts | 248° |
| 2026-04-20 03:46 | -37.95171 | 171.94014 | 35615 ft | 464 kts | 248° |
| 2026-04-20 03:47 | -37.97615 | 171.86447 | 35613 ft | 463 kts | 248° |
| 2026-04-20 03:47 | -38.00048 | 171.78896 | 35619 ft | 462 kts | 249° |
| 2026-04-20 03:48 | -38.02467 | 171.71366 | 35619 ft | 460 kts | 249° |
| 2026-04-20 03:48 | -38.04875 | 171.63852 | 35630 ft | 458 kts | 248° |
| 2026-04-20 03:49 | -38.07268 | 171.56361 | 35621 ft | 457 kts | 248° |
| 2026-04-20 03:49 | -38.09649 | 171.48889 | 35625 ft | 456 kts | 248° |
| 2026-04-20 03:50 | -38.12022 | 171.41423 | 35623 ft | 456 kts | 248° |
| 2026-04-20 03:50 | -38.14373 | 171.34003 | 35625 ft | 456 kts | 249° |
| 2026-04-20 03:51 | -38.16735 | 171.26530 | 35638 ft | 456 kts | 248° |
| 2026-04-20 03:51 | -38.19094 | 171.19040 | 35632 ft | 457 kts | 248° |
| 2026-04-20 03:52 | -38.21453 | 171.11529 | 35628 ft | 458 kts | 248° |
| 2026-04-20 03:52 | -38.23812 | 171.03988 | 35630 ft | 459 kts | 249° |
| 2026-04-20 03:53 | -38.26176 | 170.96427 | 35629 ft | 460 kts | 248° |
| 2026-04-20 03:53 | -38.27180 | 170.92575 | 35584 ft | 459 kts | 261° |
| 2026-04-20 03:53 | -38.27329 | 170.88552 | 35717 ft | 454 kts | 271° |
| 2026-04-20 03:54 | -38.27247 | 170.80474 | 35642 ft | 457 kts | 270° |
| 2026-04-20 03:54 | -38.27206 | 170.72428 | 35630 ft | 458 kts | 270° |
| 2026-04-20 03:55 | -38.27181 | 170.64301 | 35629 ft | 459 kts | 270° |
| 2026-04-20 03:55 | -38.27156 | 170.56170 | 35630 ft | 460 kts | 270° |
| 2026-04-20 03:56 | -38.27124 | 170.48027 | 35627 ft | 460 kts | 270° |
| 2026-04-20 03:56 | -38.27086 | 170.39867 | 35620 ft | 461 kts | 270° |
| 2026-04-20 03:57 | -38.27042 | 170.31710 | 35637 ft | 461 kts | 270° |
| 2026-04-20 03:57 | -38.26992 | 170.23538 | 35641 ft | 462 kts | 270° |
| 2026-04-20 03:58 | -38.26936 | 170.15409 | 35633 ft | 463 kts | 270° |
| 2026-04-20 03:58 | -38.26875 | 170.07225 | 35635 ft | 463 kts | 270° |
| 2026-04-20 03:59 | -38.26808 | 169.99016 | 35631 ft | 463 kts | 270° |
| 2026-04-20 03:59 | -38.26734 | 169.90820 | 35643 ft | 463 kts | 270° |
| 2026-04-20 04:00 | -38.26656 | 169.82617 | 35620 ft | 463 kts | 270° |
| 2026-04-20 04:00 | -38.26572 | 169.74463 | 35643 ft | 462 kts | 270° |
| 2026-04-20 04:01 | -38.26482 | 169.66273 | 35622 ft | 462 kts | 270° |
| 2026-04-20 04:01 | -38.26387 | 169.58092 | 35640 ft | 462 kts | 270° |
| 2026-04-20 04:02 | -38.26285 | 169.49917 | 35635 ft | 462 kts | 270° |
| 2026-04-20 04:02 | -38.26179 | 169.41744 | 35646 ft | 462 kts | 270° |
| 2026-04-20 04:03 | -38.26066 | 169.33566 | 35632 ft | 462 kts | 270° |
| 2026-04-20 04:03 | -38.25948 | 169.25388 | 35650 ft | 462 kts | 270° |
| 2026-04-20 04:04 | -38.25824 | 169.17200 | 35654 ft | 462 kts | 270° |
| 2026-04-20 04:04 | -38.25695 | 169.09057 | 35640 ft | 463 kts | 270° |
| 2026-04-20 04:05 | -38.25559 | 169.00860 | 35650 ft | 463 kts | 270° |
| 2026-04-20 04:05 | -38.25418 | 168.92661 | 35632 ft | 464 kts | 270° |
| 2026-04-20 04:06 | -38.25270 | 168.84446 | 35648 ft | 464 kts | 270° |
| 2026-04-20 04:06 | -38.25118 | 168.76248 | 35641 ft | 464 kts | 270° |
| 2026-04-20 04:07 | -38.24960 | 168.68070 | 35650 ft | 464 kts | 270° |
| 2026-04-20 04:07 | -38.24795 | 168.59864 | 35643 ft | 464 kts | 270° |
| 2026-04-20 04:08 | -38.24625 | 168.51665 | 35639 ft | 464 kts | 270° |
| 2026-04-20 04:08 | -38.24449 | 168.43445 | 35651 ft | 464 kts | 270° |
| 2026-04-20 04:09 | -38.24268 | 168.35233 | 35636 ft | 464 kts | 270° |
| 2026-04-20 04:09 | -38.24082 | 168.27088 | 35651 ft | 463 kts | 270° |
| 2026-04-20 04:10 | -38.23970 | 168.18888 | 35649 ft | 462 kts | 267° |
| 2026-04-20 04:10 | -38.23791 | 168.10715 | 35668 ft | 462 kts | 272° |
| 2026-04-20 04:11 | -38.23300 | 168.02541 | 35640 ft | 463 kts | 272° |
| 2026-04-20 04:11 | -38.23100 | 167.94399 | 35636 ft | 463 kts | 270° |
| 2026-04-20 04:12 | -38.22974 | 167.86197 | 35654 ft | 463 kts | 270° |
| 2026-04-20 04:12 | -38.22799 | 167.77988 | 35642 ft | 464 kts | 270° |
| 2026-04-20 04:13 | -38.22582 | 167.69778 | 35664 ft | 464 kts | 271° |
| 2026-04-20 04:13 | -38.22347 | 167.61578 | 35656 ft | 464 kts | 270° |
| 2026-04-20 04:14 | -38.22106 | 167.53390 | 35659 ft | 464 kts | 270° |
| 2026-04-20 04:14 | -38.21863 | 167.45245 | 35653 ft | 464 kts | 270° |
| 2026-04-20 04:15 | -38.21613 | 167.37038 | 35668 ft | 464 kts | 270° |
| 2026-04-20 04:15 | -38.21357 | 167.28828 | 35676 ft | 465 kts | 270° |
| 2026-04-20 04:16 | -38.21095 | 167.20598 | 35672 ft | 467 kts | 270° |
| 2026-04-20 04:16 | -38.20827 | 167.12363 | 35674 ft | 468 kts | 270° |
| 2026-04-20 04:17 | -38.20552 | 167.04079 | 35679 ft | 469 kts | 270° |
| 2026-04-20 04:17 | -38.20269 | 166.95761 | 35686 ft | 470 kts | 270° |
| 2026-04-20 04:18 | -38.19981 | 166.87459 | 35706 ft | 470 kts | 270° |
| 2026-04-20 04:18 | -38.19686 | 166.79138 | 35697 ft | 471 kts | 270° |
| 2026-04-20 04:19 | -38.19386 | 166.70820 | 35704 ft | 470 kts | 270° |
| 2026-04-20 04:19 | -38.19083 | 166.62582 | 35699 ft | 469 kts | 270° |
| 2026-04-20 04:20 | -38.18772 | 166.54302 | 35708 ft | 468 kts | 270° |
| 2026-04-20 04:20 | -38.18456 | 166.46040 | 35702 ft | 467 kts | 270° |
| 2026-04-20 04:21 | -38.18134 | 166.37783 | 35698 ft | 466 kts | 269° |
| 2026-04-20 04:21 | -38.17864 | 166.30934 | 35712 ft | 466 kts | 270° |
| 2026-04-20 04:22 | -38.17480 | 166.21383 | 35723 ft | 465 kts | 270° |
| 2026-04-20 04:22 | -38.17143 | 166.13172 | 35725 ft | 465 kts | 270° |
| 2026-04-20 04:23 | -38.16856 | 166.06285 | 35727 ft | 466 kts | 270° |
| 2026-04-20 04:23 | -38.16508 | 165.98054 | 35726 ft | 467 kts | 269° |
| 2026-04-20 04:24 | -38.16153 | 165.89787 | 35734 ft | 469 kts | 270° |
| 2026-04-20 04:24 | -38.15794 | 165.81574 | 35728 ft | 470 kts | 270° |
| 2026-04-20 04:25 | -38.15426 | 165.73287 | 35737 ft | 470 kts | 270° |
| 2026-04-20 04:25 | -38.15051 | 165.64983 | 35762 ft | 470 kts | 271° |
| 2026-04-20 04:26 | -38.14671 | 165.56705 | 35756 ft | 469 kts | 270° |
| 2026-04-20 04:26 | -38.14286 | 165.48428 | 35778 ft | 469 kts | 270° |
| 2026-04-20 04:27 | -38.13896 | 165.40163 | 35770 ft | 468 kts | 270° |
| 2026-04-20 04:27 | -38.13498 | 165.31897 | 35769 ft | 468 kts | 270° |
| 2026-04-20 04:28 | -38.13098 | 165.23644 | 35776 ft | 468 kts | 271° |
| 2026-04-20 04:28 | -38.12694 | 165.15470 | 35764 ft | 468 kts | 271° |
| 2026-04-20 04:29 | -38.12281 | 165.07222 | 35765 ft | 467 kts | 271° |
| 2026-04-20 04:29 | -38.11864 | 164.98994 | 35784 ft | 466 kts | 271° |
| 2026-04-20 04:30 | -38.11440 | 164.90764 | 35787 ft | 468 kts | 270° |
| 2026-04-20 04:30 | -38.11012 | 164.82538 | 35799 ft | 469 kts | 270° |
| 2026-04-20 04:31 | -38.10574 | 164.74252 | 35804 ft | 470 kts | 270° |
| 2026-04-20 04:31 | -38.10129 | 164.65951 | 35788 ft | 472 kts | 269° |
| 2026-04-20 04:32 | -38.09677 | 164.57625 | 35803 ft | 472 kts | 271° |
| 2026-04-20 04:32 | -38.09219 | 164.49301 | 35807 ft | 472 kts | 271° |
| 2026-04-20 04:33 | -38.08757 | 164.41026 | 35808 ft | 472 kts | 271° |
| 2026-04-20 04:33 | -38.08288 | 164.32688 | 35823 ft | 471 kts | 271° |
| 2026-04-20 04:34 | -38.07813 | 164.24394 | 35820 ft | 471 kts | 270° |
| 2026-04-20 04:34 | -38.07337 | 164.16167 | 35834 ft | 470 kts | 271° |
| 2026-04-20 04:35 | -38.06853 | 164.07900 | 35836 ft | 469 kts | 271° |
| 2026-04-20 04:35 | -38.06363 | 163.99637 | 35824 ft | 469 kts | 270° |
| 2026-04-20 04:36 | -38.05621 | 163.87282 | 35842 ft | 467 kts | 271° |
| 2026-04-20 04:37 | -38.05121 | 163.79100 | 35842 ft | 467 kts | 271° |
| 2026-04-20 04:37 | -38.04614 | 163.70889 | 35844 ft | 467 kts | 271° |
| 2026-04-20 04:38 | -38.04103 | 163.62684 | 35841 ft | 466 kts | 271° |
| 2026-04-20 04:38 | -38.03584 | 163.54479 | 35849 ft | 466 kts | 271° |
| 2026-04-20 04:39 | -38.03061 | 163.46285 | 35861 ft | 466 kts | 271° |
| 2026-04-20 04:39 | -38.02533 | 163.38091 | 35868 ft | 466 kts | 271° |
| 2026-04-20 04:40 | -38.01998 | 163.29890 | 35859 ft | 466 kts | 271° |
| 2026-04-20 04:40 | -38.01457 | 163.21689 | 35885 ft | 467 kts | 271° |
| 2026-04-20 04:41 | -38.00911 | 163.13489 | 35886 ft | 467 kts | 271° |
| 2026-04-20 04:41 | -38.00362 | 163.05330 | 35882 ft | 467 kts | 271° |
| 2026-04-20 04:42 | -37.99437 | 162.97165 | 35888 ft | 472 kts | 283° |
| 2026-04-20 04:42 | -37.97479 | 162.89214 | 35885 ft | 473 kts | 284° |
| 2026-04-20 04:43 | -37.95442 | 162.81283 | 35894 ft | 473 kts | 284° |
| 2026-04-20 04:43 | -37.93449 | 162.73387 | 35904 ft | 473 kts | 284° |
| 2026-04-20 04:44 | -37.91469 | 162.65436 | 35910 ft | 472 kts | 284° |
| 2026-04-20 04:44 | -37.89498 | 162.57498 | 35891 ft | 472 kts | 284° |
| 2026-04-20 04:45 | -37.87520 | 162.49558 | 35906 ft | 472 kts | 284° |
| 2026-04-20 04:45 | -37.85538 | 162.41636 | 35914 ft | 472 kts | 284° |
| 2026-04-20 04:46 | -37.83552 | 162.33722 | 35921 ft | 472 kts | 284° |
| 2026-04-20 04:46 | -37.81561 | 162.25817 | 35920 ft | 471 kts | 284° |
| 2026-04-20 04:47 | -37.79563 | 162.17909 | 35918 ft | 471 kts | 284° |
| 2026-04-20 04:47 | -37.77581 | 162.10089 | 35940 ft | 471 kts | 284° |
| 2026-04-20 04:48 | -37.75573 | 162.02190 | 35927 ft | 471 kts | 284° |
| 2026-04-20 04:48 | -37.73564 | 161.94314 | 35939 ft | 471 kts | 284° |
| 2026-04-20 04:49 | -37.71545 | 161.86423 | 35942 ft | 472 kts | 284° |
| 2026-04-20 04:49 | -37.69536 | 161.78594 | 35958 ft | 472 kts | 284° |
| 2026-04-20 04:50 | -37.67502 | 161.70695 | 35948 ft | 472 kts | 284° |
| 2026-04-20 04:50 | -37.65469 | 161.62822 | 35947 ft | 472 kts | 284° |
| 2026-04-20 04:51 | -37.63426 | 161.54940 | 35946 ft | 471 kts | 284° |
| 2026-04-20 04:51 | -37.61383 | 161.47080 | 35947 ft | 470 kts | 284° |
| 2026-04-20 04:52 | -37.59355 | 161.39300 | 35952 ft | 469 kts | 284° |
| 2026-04-20 04:52 | -37.57311 | 161.31483 | 35954 ft | 469 kts | 284° |
| 2026-04-20 04:53 | -37.55265 | 161.23685 | 35969 ft | 468 kts | 284° |
| 2026-04-20 04:53 | -37.53220 | 161.15911 | 35968 ft | 467 kts | 284° |
| 2026-04-20 04:54 | -37.51173 | 161.08151 | 35973 ft | 467 kts | 284° |
| 2026-04-20 04:54 | -37.49120 | 161.00397 | 35980 ft | 467 kts | 284° |
| 2026-04-20 04:55 | -37.47077 | 160.92697 | 35980 ft | 467 kts | 284° |
| 2026-04-20 04:55 | -37.45008 | 160.84928 | 35976 ft | 467 kts | 284° |
| 2026-04-20 04:56 | -37.42941 | 160.77193 | 35978 ft | 467 kts | 284° |
| 2026-04-20 04:56 | -37.40866 | 160.69446 | 35986 ft | 467 kts | 284° |
| 2026-04-20 04:57 | -37.38786 | 160.61702 | 35987 ft | 467 kts | 284° |
| 2026-04-20 04:57 | -37.36714 | 160.54013 | 35992 ft | 467 kts | 284° |
| 2026-04-20 04:58 | -37.34623 | 160.46281 | 35993 ft | 467 kts | 284° |
| 2026-04-20 04:58 | -37.32530 | 160.38560 | 36005 ft | 467 kts | 284° |
| 2026-04-20 04:59 | -37.30429 | 160.30831 | 36005 ft | 467 kts | 284° |
| 2026-04-20 04:59 | -37.28335 | 160.23150 | 36006 ft | 467 kts | 284° |
| 2026-04-20 05:00 | -37.26218 | 160.15409 | 36004 ft | 468 kts | 284° |
| 2026-04-20 05:00 | -37.24101 | 160.07694 | 36018 ft | 468 kts | 284° |
| 2026-04-20 05:01 | -37.21970 | 159.99946 | 36025 ft | 469 kts | 284° |
| 2026-04-20 05:01 | -37.19835 | 159.92207 | 36028 ft | 470 kts | 284° |
| 2026-04-20 05:02 | -37.17691 | 159.84460 | 36000 ft | 470 kts | 284° |
| 2026-04-20 05:02 | -37.15541 | 159.76713 | 36026 ft | 471 kts | 284° |
| 2026-04-20 05:03 | -37.13393 | 159.68995 | 36031 ft | 471 kts | 284° |
| 2026-04-20 05:03 | -37.11224 | 159.61222 | 36036 ft | 472 kts | 284° |
| 2026-04-20 05:04 | -37.09048 | 159.53451 | 36036 ft | 473 kts | 284° |
| 2026-04-20 05:04 | -37.06865 | 159.45677 | 36039 ft | 472 kts | 283° |
| 2026-04-20 05:05 | -37.04697 | 159.37979 | 36055 ft | 472 kts | 283° |
| 2026-04-20 05:05 | -37.02507 | 159.30223 | 36049 ft | 472 kts | 283° |
| 2026-04-20 05:06 | -37.00314 | 159.22481 | 36055 ft | 471 kts | 283° |
| 2026-04-20 05:06 | -36.98122 | 159.14765 | 36057 ft | 469 kts | 283° |
| 2026-04-20 05:07 | -36.95934 | 159.07084 | 36061 ft | 469 kts | 283° |
| 2026-04-20 05:07 | -36.93740 | 158.99403 | 36057 ft | 468 kts | 283° |
| 2026-04-20 05:08 | -36.91548 | 158.91749 | 36066 ft | 467 kts | 283° |
| 2026-04-20 05:08 | -36.89365 | 158.84148 | 36046 ft | 467 kts | 283° |
| 2026-04-20 05:09 | -36.87165 | 158.76514 | 36067 ft | 466 kts | 283° |
| 2026-04-20 05:09 | -36.84967 | 158.68901 | 36077 ft | 466 kts | 283° |
| 2026-04-20 05:10 | -36.82758 | 158.61273 | 36075 ft | 466 kts | 283° |
| 2026-04-20 05:10 | -36.80547 | 158.53660 | 36089 ft | 467 kts | 283° |
| 2026-04-20 05:11 | -36.78340 | 158.46080 | 36091 ft | 468 kts | 283° |
| 2026-04-20 05:11 | -36.76111 | 158.38448 | 36089 ft | 468 kts | 283° |
| 2026-04-20 05:12 | -36.74238 | 158.32053 | 36093 ft | 469 kts | 283° |
| 2026-04-20 05:12 | -36.71994 | 158.24410 | 36089 ft | 469 kts | 283° |
| 2026-04-20 05:13 | -36.69764 | 158.16836 | 36082 ft | 469 kts | 283° |
| 2026-04-20 05:13 | -36.67513 | 158.09211 | 36087 ft | 469 kts | 283° |
| 2026-04-20 05:14 | -36.65256 | 158.01584 | 36103 ft | 469 kts | 283° |
| 2026-04-20 05:14 | -36.62989 | 157.93946 | 36105 ft | 469 kts | 283° |
| 2026-04-20 05:15 | -36.60737 | 157.86381 | 36063 ft | 468 kts | 282° |
| 2026-04-20 05:15 | -36.58473 | 157.78797 | 36104 ft | 467 kts | 282° |
| 2026-04-20 05:16 | -36.56206 | 157.71217 | 36110 ft | 467 kts | 282° |
| 2026-04-20 05:16 | -36.53935 | 157.63649 | 36115 ft | 467 kts | 282° |
| 2026-04-20 05:17 | -36.51656 | 157.56071 | 36116 ft | 467 kts | 282° |
| 2026-04-20 05:17 | -36.49378 | 157.48521 | 36120 ft | 466 kts | 282° |
| 2026-04-20 05:18 | -36.47098 | 157.40981 | 36127 ft | 466 kts | 282° |
| 2026-04-20 05:18 | -36.44810 | 157.33436 | 36126 ft | 466 kts | 282° |
| 2026-04-20 05:19 | -36.42530 | 157.25936 | 36128 ft | 467 kts | 283° |
| 2026-04-20 05:19 | -36.40229 | 157.18388 | 36112 ft | 467 kts | 283° |
| 2026-04-20 05:20 | -36.37925 | 157.10854 | 36122 ft | 467 kts | 283° |
| 2026-04-20 05:20 | -36.35617 | 157.03321 | 36132 ft | 467 kts | 283° |
| 2026-04-20 05:21 | -36.33300 | 156.95783 | 36133 ft | 467 kts | 283° |
| 2026-04-20 05:21 | -36.30995 | 156.88300 | 36101 ft | 468 kts | 283° |
| 2026-04-20 05:22 | -36.28671 | 156.80778 | 36135 ft | 467 kts | 283° |
| 2026-04-20 05:22 | -36.26342 | 156.73259 | 36138 ft | 467 kts | 283° |
| 2026-04-20 05:23 | -36.24008 | 156.65742 | 36142 ft | 467 kts | 283° |
| 2026-04-20 05:23 | -36.21667 | 156.58223 | 36148 ft | 467 kts | 283° |
| 2026-04-20 05:24 | -36.19324 | 156.50722 | 36146 ft | 466 kts | 283° |
| 2026-04-20 05:24 | -36.16999 | 156.43291 | 36153 ft | 466 kts | 283° |
| 2026-04-20 05:25 | -36.14652 | 156.35809 | 36158 ft | 466 kts | 283° |
| 2026-04-20 05:25 | -36.12301 | 156.28337 | 36158 ft | 466 kts | 283° |
| 2026-04-20 05:26 | -36.09948 | 156.20878 | 36156 ft | 465 kts | 284° |
| 2026-04-20 05:26 | -36.07593 | 156.13429 | 36154 ft | 464 kts | 284° |
| 2026-04-20 05:27 | -36.05235 | 156.05991 | 36166 ft | 464 kts | 284° |
| 2026-04-20 05:27 | -36.02877 | 155.98570 | 36172 ft | 464 kts | 284° |
| 2026-04-20 05:28 | -36.00524 | 155.91187 | 36147 ft | 464 kts | 284° |
| 2026-04-20 05:28 | -35.98154 | 155.83768 | 36170 ft | 463 kts | 284° |
| 2026-04-20 05:29 | -35.95783 | 155.76361 | 36174 ft | 463 kts | 284° |
| 2026-04-20 05:29 | -35.93409 | 155.68967 | 36178 ft | 463 kts | 284° |
| 2026-04-20 05:30 | -35.91046 | 155.61625 | 36180 ft | 464 kts | 284° |
| 2026-04-20 05:30 | -35.88661 | 155.54233 | 36178 ft | 463 kts | 284° |
| 2026-04-20 05:31 | -35.86274 | 155.46853 | 36182 ft | 463 kts | 284° |
| 2026-04-20 05:31 | -35.83880 | 155.39468 | 36183 ft | 464 kts | 284° |
| 2026-04-20 05:32 | -35.81479 | 155.32081 | 36185 ft | 464 kts | 284° |
| 2026-04-20 05:32 | -35.79074 | 155.24703 | 36181 ft | 464 kts | 284° |
| 2026-04-20 05:33 | -35.76663 | 155.17321 | 36182 ft | 465 kts | 284° |
| 2026-04-20 05:33 | -35.74262 | 155.09990 | 36187 ft | 465 kts | 284° |
| 2026-04-20 05:34 | -35.71837 | 155.02602 | 36184 ft | 465 kts | 284° |
| 2026-04-20 05:34 | -35.68195 | 154.91544 | 36184 ft | 464 kts | 285° |
| 2026-04-20 05:35 | -35.65763 | 154.84178 | 36193 ft | 464 kts | 285° |
| 2026-04-20 05:35 | -35.63331 | 154.76828 | 36193 ft | 464 kts | 285° |
| 2026-04-20 05:36 | -35.60780 | 154.69580 | 36191 ft | 470 kts | 292° |
| 2026-04-20 05:36 | -35.58973 | 154.66183 | 36159 ft | 479 kts | 303° |
| 2026-04-20 05:36 | -35.56817 | 154.63045 | 36209 ft | 480 kts | 305° |
| 2026-04-20 05:37 | -35.52396 | 154.56862 | 36204 ft | 481 kts | 305° |
| 2026-04-20 05:37 | -35.47984 | 154.50679 | 36201 ft | 481 kts | 305° |
| 2026-04-20 05:38 | -35.43636 | 154.44513 | 36205 ft | 481 kts | 304° |
| 2026-04-20 05:38 | -35.39277 | 154.38302 | 36206 ft | 481 kts | 304° |
| 2026-04-20 05:39 | -35.34910 | 154.32088 | 36201 ft | 480 kts | 304° |
| 2026-04-20 05:39 | -35.30542 | 154.25884 | 36197 ft | 480 kts | 304° |
| 2026-04-20 05:40 | -35.26189 | 154.19717 | 36203 ft | 481 kts | 304° |
| 2026-04-20 05:40 | -35.21814 | 154.13529 | 36207 ft | 481 kts | 305° |
| 2026-04-20 05:41 | -35.17428 | 154.07338 | 36209 ft | 481 kts | 305° |
| 2026-04-20 05:41 | -35.13036 | 154.01150 | 36209 ft | 481 kts | 304° |
| 2026-04-20 05:42 | -35.08641 | 153.94968 | 36213 ft | 482 kts | 304° |
| 2026-04-20 05:42 | -35.04226 | 153.88769 | 36209 ft | 483 kts | 304° |
| 2026-04-20 05:43 | -34.99813 | 153.82583 | 36219 ft | 484 kts | 304° |
| 2026-04-20 05:43 | -34.95417 | 153.76433 | 36220 ft | 484 kts | 305° |
| 2026-04-20 05:44 | -34.90991 | 153.70253 | 36209 ft | 484 kts | 304° |
| 2026-04-20 05:44 | -34.86568 | 153.64090 | 36204 ft | 478 kts | 304° |
| 2026-04-20 05:45 | -34.84404 | 153.61087 | 36107 ft | 467 kts | 304° |
| 2026-04-20 05:45 | -34.82271 | 153.58127 | 35783 ft | 460 kts | 304° |
| 2026-04-20 05:45 | -34.80174 | 153.55217 | 35426 ft | 455 kts | 304° |
| 2026-04-20 05:45 | -34.78097 | 153.52332 | 35054 ft | 451 kts | 304° |
| 2026-04-20 05:46 | -34.76033 | 153.49463 | 34683 ft | 448 kts | 304° |
| 2026-04-20 05:46 | -34.74012 | 153.46658 | 34315 ft | 445 kts | 304° |
| 2026-04-20 05:46 | -34.71976 | 153.43835 | 33896 ft | 442 kts | 304° |
| 2026-04-20 05:46 | -34.69956 | 153.41038 | 33458 ft | 439 kts | 304° |
| 2026-04-20 05:47 | -34.67948 | 153.38260 | 33104 ft | 435 kts | 304° |
| 2026-04-20 05:47 | -34.65958 | 153.35510 | 32730 ft | 432 kts | 304° |
| 2026-04-20 05:47 | -34.63978 | 153.32776 | 32365 ft | 428 kts | 304° |
| 2026-04-20 05:47 | -34.62015 | 153.30067 | 32004 ft | 425 kts | 304° |
| 2026-04-20 05:48 | -34.60071 | 153.27387 | 31649 ft | 422 kts | 304° |
| 2026-04-20 05:48 | -34.58141 | 153.24727 | 31298 ft | 418 kts | 304° |
| 2026-04-20 05:48 | -34.56221 | 153.22083 | 30948 ft | 416 kts | 305° |
| 2026-04-20 05:48 | -34.54317 | 153.19463 | 30602 ft | 413 kts | 305° |
| 2026-04-20 05:49 | -34.52422 | 153.16857 | 30250 ft | 410 kts | 305° |
| 2026-04-20 05:49 | -34.50543 | 153.14277 | 29843 ft | 407 kts | 305° |
| 2026-04-20 05:49 | -34.48676 | 153.11715 | 29458 ft | 403 kts | 305° |
| 2026-04-20 05:49 | -34.46855 | 153.09219 | 29122 ft | 398 kts | 305° |
| 2026-04-20 05:50 | -34.45027 | 153.06713 | 28745 ft | 395 kts | 305° |
| 2026-04-20 05:50 | -34.43209 | 153.04224 | 28390 ft | 391 kts | 305° |
| 2026-04-20 05:50 | -34.41411 | 153.01762 | 28025 ft | 389 kts | 305° |
| 2026-04-20 05:50 | -34.39626 | 152.99320 | 27674 ft | 385 kts | 305° |
| 2026-04-20 05:51 | -34.37857 | 152.96902 | 27324 ft | 383 kts | 305° |
| 2026-04-20 05:51 | -34.36091 | 152.94489 | 26975 ft | 380 kts | 305° |
| 2026-04-20 05:51 | -34.34365 | 152.92133 | 26645 ft | 377 kts | 305° |
| 2026-04-20 05:51 | -34.32606 | 152.89734 | 26292 ft | 375 kts | 306° |
| 2026-04-20 05:52 | -34.30883 | 152.87385 | 25956 ft | 372 kts | 306° |
| 2026-04-20 05:52 | -34.29171 | 152.85052 | 25611 ft | 370 kts | 306° |
| 2026-04-20 05:52 | -34.27468 | 152.82733 | 25276 ft | 368 kts | 306° |
| 2026-04-20 05:52 | -34.25772 | 152.80425 | 24931 ft | 366 kts | 306° |
| 2026-04-20 05:53 | -34.24108 | 152.78163 | 24611 ft | 364 kts | 306° |
| 2026-04-20 05:53 | -34.22431 | 152.75883 | 24284 ft | 362 kts | 306° |
| 2026-04-20 05:53 | -34.20759 | 152.73613 | 23955 ft | 360 kts | 306° |
| 2026-04-20 05:53 | -34.19092 | 152.71351 | 23586 ft | 359 kts | 306° |
| 2026-04-20 05:54 | -34.17435 | 152.69102 | 23216 ft | 357 kts | 306° |
| 2026-04-20 05:54 | -34.15789 | 152.66872 | 22856 ft | 354 kts | 306° |
| 2026-04-20 05:54 | -34.14153 | 152.64654 | 22513 ft | 352 kts | 306° |
| 2026-04-20 05:54 | -34.12532 | 152.62461 | 22192 ft | 349 kts | 306° |
| 2026-04-20 05:55 | -34.10920 | 152.60282 | 21857 ft | 347 kts | 306° |
| 2026-04-20 05:55 | -34.09401 | 152.58098 | 21532 ft | 340 kts | 298° |
| 2026-04-20 05:55 | -34.08348 | 152.55599 | 21249 ft | 328 kts | 283° |
| 2026-04-20 05:55 | -34.07804 | 152.52987 | 20993 ft | 317 kts | 271° |
| 2026-04-20 05:56 | -34.07547 | 152.50349 | 20684 ft | 317 kts | 270° |
| 2026-04-20 05:56 | -34.07318 | 152.47688 | 20377 ft | 320 kts | 270° |
| 2026-04-20 05:56 | -34.07089 | 152.44999 | 20062 ft | 325 kts | 270° |
| 2026-04-20 05:56 | -34.06852 | 152.42277 | 19729 ft | 326 kts | 270° |
| 2026-04-20 05:57 | -34.06607 | 152.39563 | 19396 ft | 325 kts | 270° |
| 2026-04-20 05:57 | -34.06358 | 152.36861 | 19066 ft | 323 kts | 270° |
| 2026-04-20 05:57 | -34.06108 | 152.34171 | 18742 ft | 322 kts | 271° |
| 2026-04-20 05:57 | -34.05860 | 152.31527 | 18395 ft | 321 kts | 271° |
| 2026-04-20 05:58 | -34.05609 | 152.28853 | 18037 ft | 320 kts | 271° |
| 2026-04-20 05:58 | -34.05358 | 152.26197 | 17693 ft | 318 kts | 271° |
| 2026-04-20 05:58 | -34.05108 | 152.23562 | 17360 ft | 316 kts | 271° |
| 2026-04-20 05:58 | -34.04859 | 152.20940 | 17032 ft | 314 kts | 271° |
| 2026-04-20 05:59 | -34.04611 | 152.18326 | 16711 ft | 312 kts | 271° |
| 2026-04-20 05:59 | -34.04364 | 152.15730 | 16397 ft | 310 kts | 271° |
| 2026-04-20 05:59 | -34.04118 | 152.13153 | 16077 ft | 308 kts | 271° |
| 2026-04-20 05:59 | -34.03956 | 152.11458 | 15871 ft | 307 kts | 271° |
| 2026-04-20 06:00 | -34.03711 | 152.08906 | 15557 ft | 306 kts | 271° |
| 2026-04-20 06:00 | -34.03466 | 152.06367 | 15245 ft | 304 kts | 271° |
| 2026-04-20 06:00 | -34.03214 | 152.03834 | 14926 ft | 303 kts | 271° |
| 2026-04-20 06:00 | -34.02957 | 152.01310 | 14609 ft | 303 kts | 271° |
| 2026-04-20 06:01 | -34.02700 | 151.98795 | 14295 ft | 302 kts | 271° |
| 2026-04-20 06:01 | -34.02444 | 151.96282 | 13972 ft | 301 kts | 271° |
| 2026-04-20 06:01 | -34.02188 | 151.93775 | 13641 ft | 300 kts | 271° |
| 2026-04-20 06:01 | -34.01933 | 151.91282 | 13290 ft | 298 kts | 271° |
| 2026-04-20 06:02 | -34.01684 | 151.88846 | 12990 ft | 297 kts | 271° |
| 2026-04-20 06:02 | -34.01432 | 151.86378 | 12673 ft | 295 kts | 271° |
| 2026-04-20 06:02 | -34.01181 | 151.83931 | 12369 ft | 293 kts | 271° |
| 2026-04-20 06:02 | -34.00930 | 151.81492 | 12060 ft | 292 kts | 271° |
| 2026-04-20 06:03 | -34.00680 | 151.79071 | 11759 ft | 290 kts | 271° |
| 2026-04-20 06:03 | -34.00432 | 151.76663 | 11459 ft | 289 kts | 271° |
| 2026-04-20 06:03 | -34.00186 | 151.74266 | 11163 ft | 288 kts | 271° |
| 2026-04-20 06:03 | -33.99941 | 151.71880 | 10863 ft | 286 kts | 271° |
| 2026-04-20 06:04 | -33.99696 | 151.69494 | 10424 ft | 291 kts | 272° |
| 2026-04-20 06:04 | -33.99447 | 151.67065 | 10135 ft | 289 kts | 272° |
| 2026-04-20 06:04 | -33.99198 | 151.64660 | 9760 ft | 289 kts | 272° |
| 2026-04-20 06:04 | -33.98951 | 151.62277 | 9389 ft | 289 kts | 272° |
| 2026-04-20 06:05 | -33.98702 | 151.59876 | 9095 ft | 286 kts | 272° |
| 2026-04-20 06:05 | -33.98455 | 151.57507 | 8775 ft | 285 kts | 272° |
| 2026-04-20 06:05 | -33.98209 | 151.55145 | 8453 ft | 284 kts | 272° |
| 2026-04-20 06:05 | -33.97965 | 151.52795 | 8131 ft | 283 kts | 272° |
| 2026-04-20 06:06 | -33.97719 | 151.50436 | 7794 ft | 283 kts | 272° |
| 2026-04-20 06:06 | -33.97476 | 151.48115 | 7504 ft | 281 kts | 272° |
| 2026-04-20 06:06 | -33.97232 | 151.45783 | 7204 ft | 280 kts | 272° |
| 2026-04-20 06:06 | -33.96988 | 151.43451 | 6915 ft | 279 kts | 272° |
| 2026-04-20 06:07 | -33.96745 | 151.41142 | 6610 ft | 278 kts | 272° |
| 2026-04-20 06:07 | -33.96501 | 151.38825 | 6284 ft | 277 kts | 272° |
| 2026-04-20 06:07 | -33.96261 | 151.36528 | 6059 ft | 276 kts | 272° |
| 2026-04-20 06:07 | -33.96027 | 151.34237 | 6003 ft | 274 kts | 272° |
| 2026-04-20 06:08 | -33.95798 | 151.32008 | 5992 ft | 270 kts | 272° |
| 2026-04-20 06:08 | -33.95515 | 151.29760 | 5994 ft | 276 kts | 281° |
| 2026-04-20 06:08 | -33.94494 | 151.27763 | 6002 ft | 289 kts | 316° |
| 2026-04-20 06:08 | -33.92693 | 151.26670 | 6001 ft | 296 kts | 348° |
| 2026-04-20 06:09 | -33.90644 | 151.26473 | 6010 ft | 296 kts | 357° |
| 2026-04-20 06:09 | -33.88579 | 151.26379 | 6001 ft | 297 kts | 358° |
| 2026-04-20 06:09 | -33.86514 | 151.26294 | 5993 ft | 297 kts | 358° |
| 2026-04-20 06:09 | -33.84446 | 151.26211 | 5994 ft | 296 kts | 358° |
| 2026-04-20 06:10 | -33.82389 | 151.26129 | 5990 ft | 296 kts | 358° |
| 2026-04-20 06:10 | -33.80332 | 151.26048 | 5988 ft | 295 kts | 358° |
| 2026-04-20 06:10 | -33.78287 | 151.25968 | 5984 ft | 294 kts | 358° |
| 2026-04-20 06:10 | -33.76240 | 151.25885 | 5988 ft | 294 kts | 358° |
| 2026-04-20 06:11 | -33.74203 | 151.25801 | 5976 ft | 294 kts | 358° |
| 2026-04-20 06:11 | -33.72155 | 151.25715 | 5852 ft | 294 kts | 358° |
| 2026-04-20 06:11 | -33.70152 | 151.25631 | 5643 ft | 290 kts | 358° |
| 2026-04-20 06:11 | -33.68129 | 151.25543 | 5275 ft | 292 kts | 358° |
| 2026-04-20 06:12 | -33.66107 | 151.25456 | 5030 ft | 288 kts | 358° |
| 2026-04-20 06:12 | -33.64111 | 151.25371 | 4727 ft | 288 kts | 358° |
| 2026-04-20 06:12 | -33.62119 | 151.25288 | 4446 ft | 286 kts | 358° |
| 2026-04-20 06:12 | -33.60137 | 151.25205 | 4197 ft | 283 kts | 356° |
| 2026-04-20 06:13 | -33.58258 | 151.24612 | 3841 ft | 280 kts | 324° |
| 2026-04-20 06:13 | -33.57027 | 151.22952 | 3786 ft | 259 kts | 289° |
| 2026-04-20 06:13 | -33.56830 | 151.20925 | 3702 ft | 238 kts | 253° |
| 2026-04-20 06:13 | -33.57612 | 151.19286 | 3507 ft | 224 kts | 216° |
| 2026-04-20 06:14 | -33.58962 | 151.18409 | 3354 ft | 218 kts | 202° |
| 2026-04-20 06:14 | -33.60363 | 151.17639 | 3052 ft | 221 kts | 202° |
| 2026-04-20 06:14 | -33.61727 | 151.16880 | 3000 ft | 212 kts | 202° |
| 2026-04-20 06:14 | -33.63030 | 151.16156 | 2974 ft | 204 kts | 202° |
| 2026-04-20 06:15 | -33.64333 | 151.15553 | 2965 ft | 199 kts | 196° |
| 2026-04-20 06:15 | -33.65662 | 151.15127 | 2985 ft | 198 kts | 192° |
| 2026-04-20 06:15 | -33.67002 | 151.14718 | 2991 ft | 199 kts | 193° |
| 2026-04-20 06:15 | -33.68348 | 151.14310 | 2960 ft | 199 kts | 193° |
| 2026-04-20 06:16 | -33.69679 | 151.13910 | 2966 ft | 195 kts | 192° |
| 2026-04-20 06:16 | -33.70987 | 151.13513 | 2966 ft | 194 kts | 193° |
| 2026-04-20 06:16 | -33.72303 | 151.13119 | 2998 ft | 195 kts | 189° |
| 2026-04-20 06:16 | -33.73660 | 151.13237 | 3000 ft | 200 kts | 163° |
| 2026-04-20 06:17 | -33.75001 | 151.13679 | 2978 ft | 201 kts | 169° |
| 2026-04-20 06:17 | -33.76363 | 151.13995 | 2984 ft | 198 kts | 169° |
| 2026-04-20 06:17 | -33.77679 | 151.14318 | 2954 ft | 187 kts | 169° |
| 2026-04-20 06:17 | -33.78913 | 151.14635 | 2956 ft | 179 kts | 168° |
| 2026-04-20 06:18 | -33.80117 | 151.14948 | 2953 ft | 176 kts | 168° |
| 2026-04-20 06:18 | -33.81318 | 151.15262 | 2782 ft | 177 kts | 169° |
| 2026-04-20 06:18 | -33.82530 | 151.15578 | 2555 ft | 177 kts | 168° |
| 2026-04-20 06:18 | -33.83709 | 151.15886 | 2317 ft | 170 kts | 169° |
| 2026-04-20 06:19 | -33.84859 | 151.16187 | 2086 ft | 167 kts | 169° |
| 2026-04-20 06:19 | -33.85971 | 151.16477 | 1864 ft | 159 kts | 170° |
| 2026-04-20 06:19 | -33.87041 | 151.16756 | 1669 ft | 153 kts | 169° |
| 2026-04-20 06:19 | -33.88045 | 151.17019 | 1446 ft | 143 kts | 171° |
| 2026-04-20 06:20 | -33.88968 | 151.17260 | 1296 ft | 132 kts | 170° |
| 2026-04-20 06:20 | -33.89874 | 151.17496 | 1092 ft | 131 kts | 169° |
| 2026-04-20 06:20 | -33.90762 | 151.17728 | 924 ft | 129 kts | 172° |
| 2026-04-20 06:20 | -33.91622 | 151.17952 | 741 ft | 124 kts | 172° |
| 2026-04-20 06:21 | -33.92482 | 151.18175 | 595 ft | 133 kts | 170° |
| 2026-04-20 06:21 | -33.93395 | 151.18414 | 423 ft | 134 kts | 171° |
| 2026-04-20 06:21 | -33.94286 | 151.18647 | 240 ft | 131 kts | 171° |
| 2026-04-20 06:21 | -33.95183 | 151.18885 | 60 ft | 132 kts | 171° |
| 2026-04-20 06:22 | -33.96015 | 151.19090 | 27 ft | 100 kts | 167° |
| 2026-04-20 06:22 | -33.96507 | 151.19225 | 24 ft | 53 kts | 168° |
| 2026-04-20 06:22 | -33.96787 | 151.19291 | 24 ft | 33 kts | 174° |
| 2026-04-20 06:22 | -33.96981 | 151.19277 | 28 ft | 21 kts | 189° |
| 2026-04-20 06:23 | -33.97091 | 151.19244 | 28 ft | 13 kts | 205° |
| 2026-04-20 06:23 | -33.97115 | 151.19163 | 29 ft | 11 kts | 298° |
| 2026-04-20 06:23 | -33.97049 | 151.19124 | 29 ft | 10 kts | 346° |
| 2026-04-20 06:23 | -33.97012 | 151.19114 | 29 ft | 3 kts | 347° |
| 2026-04-20 06:24 | -33.96987 | 151.19107 | 29 ft | 4 kts | 347° |
| 2026-04-20 06:24 | -33.96959 | 151.19099 | 29 ft | 4 kts | 347° |
| 2026-04-20 06:24 | -33.96926 | 151.19091 | 29 ft | 5 kts | 347° |
| 2026-04-20 06:24 | -33.96889 | 151.19081 | 29 ft | 6 kts | 347° |
| 2026-04-20 06:25 | -33.96846 | 151.19069 | 29 ft | 7 kts | 347° |
| 2026-04-20 06:25 | -33.96789 | 151.19062 | 29 ft | 9 kts | 3° |
| 2026-04-20 06:25 | -33.96714 | 151.19075 | 29 ft | 12 kts | 9° |
| 2026-04-20 06:25 | -33.96624 | 151.19059 | 29 ft | 14 kts | 347° |
| 2026-04-20 06:26 | -33.96523 | 151.19031 | 29 ft | 15 kts | 347° |
| 2026-04-20 06:26 | -33.96430 | 151.19006 | 29 ft | 12 kts | 349° |
| 2026-04-20 06:26 | -33.96352 | 151.18988 | 29 ft | 10 kts | 348° |
| 2026-04-20 06:26 | -33.96286 | 151.18971 | 29 ft | 11 kts | 347° |
| 2026-04-20 06:27 | -33.96207 | 151.18949 | 29 ft | 13 kts | 347° |
| 2026-04-20 06:27 | -33.96114 | 151.18925 | 29 ft | 15 kts | 348° |
| 2026-04-20 06:27 | -33.96008 | 151.18899 | 29 ft | 16 kts | 348° |
| 2026-04-20 06:27 | -33.95891 | 151.18869 | 29 ft | 18 kts | 347° |
| 2026-04-20 06:28 | -33.95761 | 151.18834 | 29 ft | 20 kts | 347° |
| 2026-04-20 06:28 | -33.95620 | 151.18798 | 29 ft | 22 kts | 347° |
| 2026-04-20 06:28 | -33.95474 | 151.18759 | 29 ft | 21 kts | 347° |
| 2026-04-20 06:28 | -33.95344 | 151.18725 | 29 ft | 15 kts | 348° |
| 2026-04-20 06:29 | -33.95252 | 151.18684 | 29 ft | 14 kts | 329° |
| 2026-04-20 06:29 | -33.95178 | 151.18613 | 29 ft | 13 kts | 319° |
| 2026-04-20 06:29 | -33.95121 | 151.18531 | 29 ft | 12 kts | 296° |
| 2026-04-20 06:29 | -33.95114 | 151.18435 | 29 ft | 11 kts | 259° |
| 2026-04-20 06:30 | -33.95131 | 151.18342 | 29 ft | 11 kts | 258° |
| 2026-04-20 06:30 | -33.95146 | 151.18252 | 29 ft | 11 kts | 257° |
| 2026-04-20 06:30 | -33.95163 | 151.18166 | 29 ft | 11 kts | 256° |
| 2026-04-20 06:30 | -33.95179 | 151.18082 | 29 ft | 10 kts | 257° |
| 2026-04-20 06:31 | -33.95183 | 151.17998 | 29 ft | 10 kts | 287° |
| 2026-04-20 06:31 | -33.95125 | 151.17949 | 29 ft | 11 kts | 347° |
| 2026-04-20 06:31 | -33.95040 | 151.17927 | 29 ft | 13 kts | 348° |
| 2026-04-20 06:31 | -33.94942 | 151.17902 | 29 ft | 15 kts | 348° |
| 2026-04-20 06:32 | -33.94831 | 151.17873 | 29 ft | 17 kts | 347° |
| 2026-04-20 06:32 | -33.94710 | 151.17841 | 29 ft | 18 kts | 347° |
| 2026-04-20 06:32 | -33.94597 | 151.17811 | 29 ft | 16 kts | 348° |
| 2026-04-20 06:32 | -33.94487 | 151.17783 | 29 ft | 16 kts | 347° |
| 2026-04-20 06:33 | -33.94388 | 151.17751 | 29 ft | 13 kts | 345° |
| 2026-04-20 06:33 | -33.94303 | 151.17725 | 29 ft | 10 kts | 346° |
| 2026-04-20 06:33 | -33.94238 | 151.17705 | 28 ft | 9 kts | 346° |
| 2026-04-20 06:33 | -33.94173 | 151.17685 | 28 ft | 11 kts | 346° |
| 2026-04-20 06:34 | -33.94093 | 151.17661 | 27 ft | 13 kts | 346° |
| 2026-04-20 06:34 | -33.94000 | 151.17636 | 27 ft | 13 kts | 347° |
| 2026-04-20 06:34 | -33.93942 | 151.17620 | 28 ft | 0 kts | 347° |
| 2026-04-20 06:35 | -33.93941 | 151.17620 | 28 ft | 1 kts | 347° |
| 2026-04-20 06:35 | -33.93921 | 151.17614 | 28 ft | 6 kts | 346° |
| 2026-04-20 06:35 | -33.93895 | 151.17549 | 27 ft | 13 kts | 261° |
| 2026-04-20 06:36 | -33.93924 | 151.17422 | 26 ft | 17 kts | 255° |
| 2026-04-20 06:36 | -33.93949 | 151.17311 | 27 ft | 9 kts | 255° |
| 2026-04-20 06:36 | -33.93961 | 151.17256 | 28 ft | 6 kts | 254° |
| 2026-04-20 06:36 | -33.93974 | 151.17205 | 28 ft | 7 kts | 253° |
| 2026-04-20 06:37 | -33.93989 | 151.17145 | 29 ft | 9 kts | 253° |
| 2026-04-20 06:37 | -33.94009 | 151.17065 | 29 ft | 11 kts | 253° |
| 2026-04-20 06:37 | -33.94033 | 151.16961 | 29 ft | 14 kts | 254° |
| 2026-04-20 06:37 | -33.94057 | 151.16846 | 29 ft | 12 kts | 275° |
| 2026-04-20 06:38 | -33.93998 | 151.16797 | 29 ft | 11 kts | 344° |
| 2026-04-20 06:38 | -33.93931 | 151.16774 | 29 ft | 6 kts | 334° |
| 2026-04-20 06:38 | -33.93923 | 151.16741 | 29 ft | 4 kts | 246° |
| 2026-04-20 06:38 | -33.93931 | 151.16706 | 29 ft | 4 kts | 259° |
| 2026-04-20 06:39 | -33.93934 | 151.16686 | 29 ft | 1 kts | 261° |
| 2026-04-20 06:39 | -33.93934 | 151.16683 | 29 ft | 0 kts | 262° |